createdAt,value
2018-12-23T00:01:49.112Z,80.37
2018-12-23T00:04:17.972Z,80.59
2018-12-23T00:06:45.425Z,80.76
2018-12-23T00:09:12.911Z,80.54
2018-12-23T00:11:40.432Z,80.81
2018-12-23T00:14:07.901Z,80.19
2018-12-23T00:16:35.393Z,80.19
2018-12-23T00:19:02.848Z,80.60
2018-12-23T00:21:31.373Z,80.76
2018-12-23T00:23:58.829Z,80.34
2018-12-23T00:26:26.309Z,80.61
2018-12-23T00:28:53.904Z,80.49
2018-12-23T00:31:21.411Z,80.11
2018-12-23T00:33:48.867Z,79.84
2018-12-23T00:36:16.375Z,80.25
2018-12-23T00:38:43.983Z,79.96
2018-12-23T00:41:11.468Z,80.65
2018-12-23T00:43:38.934Z,80.20
2018-12-23T00:46:06.400Z,80.11
2018-12-23T00:48:33.950Z,79.75
2018-12-23T00:51:01.541Z,80.11
2018-12-23T00:53:29.041Z,80.14
2018-12-23T00:55:56.484Z,80.14
2018-12-23T00:58:23.956Z,79.79
2018-12-23T01:00:51.402Z,79.97
2018-12-23T01:03:18.875Z,79.62
2018-12-23T01:05:46.335Z,80.16
2018-12-23T01:08:13.849Z,79.98
2018-12-23T01:10:41.299Z,80.65
2018-12-23T01:13:08.874Z,80.66
2018-12-23T01:15:36.377Z,80.47
2018-12-23T01:18:03.898Z,80.76
2018-12-23T01:20:31.576Z,80.86
2018-12-23T01:22:59.118Z,80.70
2018-12-23T01:25:26.586Z,81.18
2018-12-23T01:27:54.016Z,80.88
2018-12-23T01:30:21.712Z,80.66
2018-12-23T01:32:49.239Z,81.09
2018-12-23T01:35:16.673Z,80.95
2018-12-23T01:37:44.166Z,81.43
2018-12-23T01:40:11.643Z,81.18
2018-12-23T01:42:39.105Z,80.88
2018-12-23T01:45:06.636Z,81.16
2018-12-23T01:47:34.432Z,80.64
2018-12-23T01:50:01.992Z,80.63
2018-12-23T01:52:29.448Z,80.94
2018-12-23T01:54:57.077Z,81.06
2018-12-23T01:57:24.579Z,80.54
2018-12-23T01:59:52.076Z,80.62
2018-12-23T02:02:19.600Z,80.40
2018-12-23T02:04:47.133Z,80.64
2018-12-23T02:07:14.607Z,80.05
2018-12-23T02:09:42.178Z,80.29
2018-12-23T02:12:09.687Z,80.47
2018-12-23T02:14:37.356Z,80.21
2018-12-23T02:17:04.892Z,80.12
2018-12-23T02:19:33.271Z,79.99
2018-12-23T02:22:00.871Z,79.81
2018-12-23T02:24:28.560Z,80.04
2018-12-23T02:26:56.000Z,80.10
2018-12-23T02:29:23.459Z,80.46
2018-12-23T02:31:51.032Z,79.78
2018-12-23T02:34:18.612Z,79.96
2018-12-23T02:36:46.221Z,80.13
2018-12-23T02:39:14.143Z,79.85
2018-12-23T02:41:43.473Z,79.72
2018-12-23T02:44:10.952Z,80.25
2018-12-23T02:46:38.476Z,80.12
2018-12-23T02:49:05.947Z,79.85
2018-12-23T02:51:33.461Z,80.33
2018-12-23T02:54:01.020Z,80.46
2018-12-23T02:56:28.438Z,80.67
2018-12-23T02:58:55.995Z,80.85
2018-12-23T03:01:23.561Z,80.79
2018-12-23T03:03:51.117Z,80.87
2018-12-23T03:06:18.678Z,81.00
2018-12-23T03:08:46.330Z,80.97
2018-12-23T03:11:13.812Z,79.84
2018-12-23T03:13:41.321Z,80.68
2018-12-23T03:16:08.846Z,80.53
2018-12-23T03:18:36.348Z,80.63
2018-12-23T03:21:03.843Z,80.56
2018-12-23T03:23:31.284Z,80.66
2018-12-23T03:25:58.734Z,80.52
2018-12-23T03:28:26.291Z,80.38
2018-12-23T03:30:53.870Z,80.54
2018-12-23T03:33:21.356Z,80.42
2018-12-23T03:35:48.936Z,81.00
2018-12-23T03:38:16.605Z,80.87
2018-12-23T03:40:44.128Z,81.12
2018-12-23T03:43:11.659Z,80.95
2018-12-23T03:45:39.384Z,80.56
2018-12-23T03:48:07.018Z,80.47
2018-12-23T03:50:34.495Z,80.75
2018-12-23T03:53:02.145Z,81.56
2018-12-23T03:55:29.736Z,81.84
2018-12-23T03:57:57.181Z,81.91
2018-12-23T04:00:24.709Z,81.49
2018-12-23T04:02:52.217Z,81.58
2018-12-23T04:05:19.800Z,81.56
2018-12-23T04:07:47.267Z,80.99
2018-12-23T04:10:15.360Z,81.54
2018-12-23T04:12:42.862Z,81.58
2018-12-23T04:15:10.403Z,81.88
2018-12-23T04:17:37.978Z,81.42
2018-12-23T04:20:05.484Z,81.46
2018-12-23T04:22:33.683Z,81.61
2018-12-23T04:25:01.269Z,81.28
2018-12-23T04:27:28.770Z,81.41
2018-12-23T04:29:56.298Z,81.07
2018-12-23T04:32:24.773Z,81.80
2018-12-23T04:34:52.299Z,81.92
2018-12-23T04:37:19.750Z,81.34
2018-12-23T04:39:47.208Z,81.27
2018-12-23T04:42:14.743Z,80.81
2018-12-23T04:44:42.215Z,81.80
2018-12-23T04:47:09.695Z,80.95
2018-12-23T04:49:37.227Z,80.68
2018-12-23T04:52:04.732Z,80.66
2018-12-23T04:54:32.272Z,80.95
2018-12-23T04:56:59.770Z,79.83
2018-12-23T04:59:27.351Z,79.33
2018-12-23T05:01:54.867Z,79.90
2018-12-23T05:04:22.396Z,79.19
2018-12-23T05:06:49.861Z,79.48
2018-12-23T05:09:17.324Z,79.24
2018-12-23T05:11:44.838Z,79.33
2018-12-23T05:14:12.272Z,79.42
2018-12-23T05:16:39.720Z,79.60
2018-12-23T05:19:07.178Z,79.45
2018-12-23T05:21:34.645Z,79.53
2018-12-23T05:24:02.159Z,79.39
2018-12-23T05:26:29.692Z,79.58
2018-12-23T05:28:57.153Z,79.95
2018-12-23T05:31:24.623Z,79.80
2018-12-23T05:33:52.104Z,79.78
2018-12-23T05:36:19.710Z,79.85
2018-12-23T05:38:47.192Z,80.18
2018-12-23T05:41:14.644Z,80.13
2018-12-23T05:43:42.088Z,79.84
2018-12-23T05:46:09.598Z,79.80
2018-12-23T05:48:37.089Z,79.77
2018-12-23T05:51:04.673Z,79.88
2018-12-23T05:53:32.144Z,80.19
2018-12-23T05:55:59.138Z,79.96
2018-12-23T05:58:26.631Z,79.52
2018-12-23T06:00:54.807Z,79.87
2018-12-23T06:03:22.340Z,79.24
2018-12-23T06:05:49.872Z,78.93
2018-12-23T06:08:17.453Z,79.04
2018-12-23T06:10:44.913Z,78.83
2018-12-23T06:13:12.396Z,78.64
2018-12-23T06:15:40.038Z,77.97
2018-12-23T06:18:07.504Z,77.39
2018-12-23T06:20:35.016Z,77.24
2018-12-23T06:23:02.564Z,77.12
2018-12-23T06:25:30.008Z,77.32
2018-12-23T06:27:57.459Z,77.26
2018-12-23T06:30:25.251Z,77.16
2018-12-23T06:32:52.752Z,76.95
2018-12-23T06:35:20.326Z,77.09
2018-12-23T06:37:47.852Z,77.26
2018-12-23T06:40:15.300Z,77.15
2018-12-23T06:42:42.783Z,77.52
2018-12-23T06:45:10.232Z,77.60
2018-12-23T06:47:37.728Z,77.63
2018-12-23T06:50:05.427Z,77.76
2018-12-23T06:52:32.938Z,78.21
2018-12-23T06:55:00.377Z,78.51
2018-12-23T06:57:27.833Z,78.11
2018-12-23T06:59:55.259Z,78.81
2018-12-23T07:02:22.893Z,79.25
2018-12-23T07:04:50.399Z,78.67
2018-12-23T07:07:18.790Z,79.00
2018-12-23T07:09:46.607Z,78.82
2018-12-23T07:12:14.097Z,79.16
2018-12-23T07:14:41.631Z,79.37
2018-12-23T07:17:09.143Z,79.32
2018-12-23T07:19:36.582Z,79.37
2018-12-23T07:22:04.133Z,78.99
2018-12-23T07:24:31.864Z,79.44
2018-12-23T07:26:59.661Z,79.24
2018-12-23T07:29:27.239Z,78.89
2018-12-23T07:31:55.441Z,79.61
2018-12-23T07:34:22.929Z,79.74
2018-12-23T07:36:50.409Z,79.25
2018-12-23T07:39:17.889Z,79.71
2018-12-23T07:41:45.370Z,79.67
2018-12-23T07:44:12.828Z,79.68
2018-12-23T07:46:40.309Z,79.81
2018-12-23T07:49:07.770Z,79.84
2018-12-23T07:51:35.256Z,79.84
2018-12-23T07:54:02.716Z,79.72
2018-12-23T07:56:30.269Z,79.94
2018-12-23T07:58:57.782Z,79.74
2018-12-23T08:01:26.101Z,79.99
2018-12-23T08:03:53.635Z,79.99
2018-12-23T08:06:21.155Z,79.59
2018-12-23T08:08:48.598Z,80.03
2018-12-23T08:11:16.126Z,79.89
2018-12-23T08:13:43.940Z,79.79
2018-12-23T08:16:11.432Z,79.75
2018-12-23T08:18:38.963Z,79.98
2018-12-23T08:21:06.523Z,79.44
2018-12-23T08:23:33.980Z,79.77
2018-12-23T08:26:01.919Z,79.74
2018-12-23T08:28:29.408Z,79.43
2018-12-23T08:30:56.882Z,79.28
2018-12-23T08:33:24.484Z,79.77
2018-12-23T08:35:52.087Z,79.34
2018-12-23T08:38:19.545Z,81.58
2018-12-23T08:40:47.082Z,79.53
2018-12-23T08:43:14.642Z,78.19
2018-12-23T08:45:42.159Z,78.16
2018-12-23T08:48:09.712Z,78.44
2018-12-23T08:50:37.273Z,78.32
2018-12-23T08:53:04.776Z,78.61
2018-12-23T08:55:33.227Z,78.43
2018-12-23T08:58:00.726Z,78.15
2018-12-23T09:00:28.252Z,78.55
2018-12-23T09:02:55.751Z,78.45
2018-12-23T09:05:23.256Z,78.16
2018-12-23T09:07:53.064Z,78.02
2018-12-23T09:10:20.660Z,78.02
2018-12-23T09:12:48.188Z,77.90
2018-12-23T09:15:15.664Z,78.24
2018-12-23T09:17:43.153Z,78.55
2018-12-23T09:20:10.650Z,78.02
2018-12-23T09:22:38.106Z,78.28
2018-12-23T09:25:05.672Z,77.93
2018-12-23T09:27:33.169Z,78.05
2018-12-23T09:30:00.651Z,78.35
2018-12-23T09:32:28.369Z,78.19
2018-12-23T09:34:55.873Z,78.36
2018-12-23T09:37:23.419Z,78.16
2018-12-23T09:39:50.933Z,77.91
2018-12-23T09:42:18.489Z,78.15
2018-12-23T09:44:46.033Z,77.90
2018-12-23T09:47:13.887Z,77.89
2018-12-23T09:49:41.355Z,77.88
2018-12-23T09:52:08.840Z,77.71
2018-12-23T09:54:36.311Z,77.53
2018-12-23T09:57:03.986Z,77.42
2018-12-23T09:59:31.460Z,77.57
2018-12-23T10:01:59.092Z,77.91
2018-12-23T10:04:26.663Z,77.48
2018-12-23T10:06:54.289Z,76.98
2018-12-23T10:09:22.014Z,76.87
2018-12-23T10:11:49.553Z,77.70
2018-12-23T10:14:17.076Z,77.25
2018-12-23T10:16:44.534Z,77.17
2018-12-23T10:19:12.057Z,76.72
2018-12-23T10:21:39.602Z,76.66
2018-12-23T10:24:07.143Z,76.50
2018-12-23T10:26:34.588Z,76.68
2018-12-23T10:29:02.099Z,76.77
2018-12-23T10:31:29.614Z,76.62
2018-12-23T10:33:57.175Z,76.77
2018-12-23T10:36:24.694Z,76.58
2018-12-23T10:38:52.194Z,77.02
2018-12-23T10:41:19.691Z,76.44
2018-12-23T10:43:47.480Z,76.27
2018-12-23T10:46:14.971Z,77.54
2018-12-23T10:48:42.492Z,76.06
2018-12-23T10:51:09.961Z,76.87
2018-12-23T10:53:37.473Z,76.59
2018-12-23T10:56:04.925Z,75.49
2018-12-23T10:58:32.414Z,75.13
2018-12-23T11:00:59.987Z,75.15
2018-12-23T11:03:27.558Z,75.30
2018-12-23T11:05:55.309Z,75.92
2018-12-23T11:08:26.872Z,75.40
2018-12-23T11:10:52.456Z,74.83
2018-12-23T11:13:19.952Z,75.32
2018-12-23T11:15:47.450Z,75.37
2018-12-23T11:18:14.968Z,75.33
2018-12-23T11:20:42.448Z,75.38
2018-12-23T11:23:09.894Z,75.45
2018-12-23T11:25:37.359Z,75.23
2018-12-23T11:28:04.802Z,75.21
2018-12-23T11:30:32.391Z,75.30
2018-12-23T11:32:59.916Z,75.27
2018-12-23T11:35:27.695Z,75.28
2018-12-23T11:37:55.149Z,75.30
2018-12-23T11:40:22.611Z,75.39
2018-12-23T11:42:50.063Z,74.95
2018-12-23T11:45:17.535Z,75.09
2018-12-23T11:47:45.011Z,76.17
2018-12-23T11:50:12.476Z,75.71
2018-12-23T11:52:39.933Z,75.84
2018-12-23T11:55:07.402Z,77.40
2018-12-23T11:57:34.868Z,75.78
2018-12-23T12:00:02.411Z,75.92
2018-12-23T12:02:29.869Z,75.10
2018-12-23T12:04:57.345Z,75.46
2018-12-23T12:07:24.951Z,74.91
2018-12-23T12:09:52.446Z,74.65
2018-12-23T12:12:19.919Z,75.02
2018-12-23T12:14:47.435Z,75.00
2018-12-23T12:17:14.916Z,74.77
2018-12-23T12:19:42.396Z,74.97
2018-12-23T12:22:09.876Z,74.90
2018-12-23T12:24:37.351Z,75.51
2018-12-23T12:27:04.822Z,74.58
2018-12-23T12:29:32.344Z,74.99
2018-12-23T12:31:59.888Z,75.05
2018-12-23T12:34:27.416Z,75.35
2018-12-23T12:36:54.923Z,75.69
2018-12-23T12:39:22.411Z,74.59
2018-12-23T12:41:49.911Z,74.79
2018-12-23T12:44:17.396Z,74.70
2018-12-23T12:46:44.929Z,75.50
2018-12-23T12:49:12.562Z,74.29
2018-12-23T12:51:40.310Z,75.37
2018-12-23T12:54:07.870Z,74.79
2018-12-23T12:56:35.413Z,75.11
2018-12-23T12:59:02.898Z,75.81
2018-12-23T13:01:30.376Z,76.00
2018-12-23T13:03:59.015Z,75.80
2018-12-23T13:06:26.729Z,76.00
2018-12-23T13:09:00.446Z,76.93
2018-12-23T13:11:23.732Z,76.71
2018-12-23T13:13:51.361Z,77.07
2018-12-23T13:16:18.883Z,77.44
2018-12-23T13:18:46.323Z,77.45
2018-12-23T13:21:13.775Z,77.72
2018-12-23T13:23:41.210Z,77.59
2018-12-23T13:26:08.748Z,77.92
2018-12-23T13:28:36.315Z,77.42
2018-12-23T13:31:03.838Z,78.13
2018-12-23T13:33:31.336Z,78.21
2018-12-23T13:35:59.421Z,78.38
2018-12-23T13:38:27.999Z,78.21
2018-12-23T13:47:29.558Z,78.34
2018-12-23T13:50:28.134Z,78.26
2018-12-23T13:53:17.820Z,78.23
2018-12-23T13:56:13.423Z,78.44
2018-12-23T13:58:45.113Z,78.14
2018-12-23T14:01:31.567Z,78.49
2018-12-23T14:04:05.762Z,78.33
2018-12-23T14:06:37.385Z,78.60
2018-12-23T14:09:17.258Z,78.78
2018-12-23T14:11:45.111Z,79.20
2018-12-23T14:14:13.916Z,79.17
2018-12-23T14:16:42.477Z,79.15
2018-12-23T14:19:11.114Z,78.82
2018-12-23T14:21:39.715Z,79.04
2018-12-23T14:24:08.333Z,79.16
2018-12-23T14:26:37.083Z,79.11
2018-12-23T14:29:05.691Z,79.41
2018-12-23T14:31:34.333Z,79.10
2018-12-23T14:34:03.089Z,79.34
2018-12-23T14:36:31.730Z,79.12
2018-12-23T14:39:04.401Z,79.21
2018-12-23T14:41:33.349Z,78.95
2018-12-23T14:44:01.908Z,78.84
2018-12-23T14:46:30.591Z,79.35
2018-12-23T14:48:59.171Z,78.99
2018-12-23T14:51:27.724Z,78.91
2018-12-23T14:53:56.418Z,79.46
2018-12-23T14:56:24.963Z,79.31
2018-12-23T14:58:53.525Z,79.64
2018-12-23T15:01:22.077Z,80.31
2018-12-23T15:03:52.144Z,80.31
2018-12-23T15:06:20.800Z,80.28
2018-12-23T15:08:49.394Z,80.91
2018-12-23T15:11:18.183Z,80.91
2018-12-23T15:13:46.801Z,80.71
2018-12-23T15:16:15.470Z,80.77
2018-12-23T15:18:44.120Z,80.97
2018-12-23T15:21:12.666Z,81.36
2018-12-23T15:23:41.334Z,81.05
2018-12-23T15:26:11.411Z,81.05
2018-12-23T15:28:40.270Z,80.82
2018-12-23T15:31:10.031Z,80.80
2018-12-23T15:33:38.648Z,80.80
2018-12-23T15:36:07.205Z,80.58
2018-12-23T15:38:35.807Z,80.65
2018-12-23T15:41:04.367Z,80.57
2018-12-23T15:43:32.951Z,80.75
2018-12-23T15:46:01.607Z,80.81
2018-12-23T15:48:30.445Z,80.81
2018-12-23T15:51:07.964Z,81.15
2018-12-23T15:53:36.566Z,81.28
2018-12-23T15:56:05.428Z,81.54
2018-12-23T15:58:34.025Z,81.54
2018-12-23T16:01:02.757Z,81.19
2018-12-23T16:03:36.067Z,81.67
2018-12-23T16:06:04.751Z,81.67
2018-12-23T16:08:33.354Z,81.74
2018-12-23T16:11:02.198Z,82.49
2018-12-23T16:13:30.742Z,82.40
2018-12-23T16:15:59.585Z,82.46
2018-12-23T16:18:28.230Z,82.55
2018-12-23T16:20:56.875Z,82.22
2018-12-23T16:23:25.434Z,82.21
2018-12-23T16:25:54.169Z,82.56
2018-12-23T16:28:22.708Z,82.35
2018-12-23T16:30:51.301Z,82.17
2018-12-23T16:33:19.933Z,81.69
2018-12-23T16:35:50.145Z,82.24
2018-12-23T16:38:18.659Z,82.28
2018-12-23T16:40:47.181Z,82.38
2018-12-23T16:43:15.820Z,82.78
2018-12-23T16:45:44.343Z,83.00
2018-12-23T16:48:14.569Z,82.88
2018-12-23T16:50:43.112Z,82.30
2018-12-23T16:53:11.811Z,82.30
2018-12-23T16:55:40.365Z,82.19
2018-12-23T16:58:08.974Z,81.91
2018-12-23T17:00:37.583Z,82.43
2018-12-23T17:03:06.160Z,82.47
2018-12-23T17:05:34.889Z,82.60
2018-12-23T17:08:04.575Z,82.66
2018-12-23T17:10:33.114Z,82.69
2018-12-23T17:13:01.686Z,83.00
2018-12-23T17:15:30.271Z,82.92
2018-12-23T17:17:58.857Z,82.90
2018-12-23T17:20:27.487Z,83.55
2018-12-23T17:22:56.012Z,83.54
2018-12-23T17:25:24.608Z,83.62
2018-12-23T17:27:53.164Z,84.69
2018-12-23T17:30:21.763Z,84.69
2018-12-23T17:32:50.356Z,84.90
2018-12-23T17:35:19.061Z,84.66
2018-12-23T17:37:47.733Z,84.28
2018-12-23T17:40:18.812Z,84.40
2018-12-23T17:42:47.479Z,84.12
2018-12-23T17:45:16.065Z,84.21
2018-12-23T17:47:44.701Z,83.96
2018-12-23T17:50:13.311Z,83.98
2018-12-23T17:52:41.907Z,83.97
2018-12-23T17:55:10.553Z,83.96
2018-12-23T17:57:40.543Z,83.85
2018-12-23T18:00:11.822Z,83.98
2018-12-23T18:02:39.923Z,84.36
2018-12-23T18:05:08.557Z,84.36
2018-12-23T18:07:37.126Z,84.15
2018-12-23T18:10:06.669Z,84.19
2018-12-23T18:12:35.248Z,84.06
2018-12-23T18:15:04.253Z,84.06
2018-12-23T18:17:32.770Z,83.92
2018-12-23T18:20:01.358Z,83.92
2018-12-23T18:22:29.962Z,84.69
2018-12-23T18:24:58.545Z,84.76
2018-12-23T18:27:27.085Z,84.76
2018-12-23T18:29:55.687Z,83.99
2018-12-23T18:32:24.254Z,83.99
2018-12-23T18:34:52.935Z,84.82
2018-12-23T18:37:21.582Z,84.51
2018-12-23T18:39:50.168Z,84.39
2018-12-23T18:42:18.926Z,84.88
2018-12-23T18:44:47.477Z,84.85
2018-12-23T18:47:16.686Z,84.64
2018-12-23T18:49:45.241Z,85.35
2018-12-23T18:52:14.595Z,84.75
2018-12-23T18:54:43.370Z,85.06
2018-12-23T18:57:12.017Z,85.81
2018-12-23T18:59:40.941Z,84.82
2018-12-23T19:02:09.493Z,84.51
2018-12-23T19:04:38.216Z,83.88
2018-12-23T19:07:06.852Z,83.35
2018-12-23T19:09:35.944Z,83.35
2018-12-23T19:12:10.445Z,83.67
2018-12-23T19:14:42.097Z,83.67
2018-12-23T19:17:27.869Z,83.65
2018-12-23T19:20:15.976Z,83.36
2018-12-23T19:23:06.010Z,83.05
2018-12-23T19:25:51.825Z,83.33
2018-12-23T19:28:38.441Z,82.91
2018-12-23T19:31:25.174Z,83.17
2018-12-23T19:34:02.473Z,83.04
2018-12-23T19:36:42.644Z,83.04
2018-12-23T19:39:32.388Z,83.28
2018-12-23T19:42:37.716Z,83.57
2018-12-23T19:45:42.764Z,84.30
2018-12-23T19:48:26.226Z,84.59
2018-12-23T19:51:16.141Z,84.70
2018-12-23T19:53:56.733Z,84.62
2018-12-23T19:56:49.724Z,84.34
2018-12-23T19:59:27.386Z,84.98
2018-12-23T20:02:17.229Z,84.90
2018-12-23T20:04:51.440Z,84.92
2018-12-23T20:07:34.493Z,84.89
2018-12-23T20:10:22.792Z,84.62
2018-12-23T20:13:11.362Z,84.59
2018-12-23T20:16:16.455Z,84.49
2018-12-23T20:18:48.138Z,84.49
2018-12-23T20:21:28.544Z,84.67
2018-12-23T20:24:05.936Z,84.41
2018-12-23T20:26:52.650Z,84.31
2018-12-23T20:29:45.512Z,84.84
2018-12-23T20:32:32.026Z,84.82
2018-12-23T20:35:15.889Z,84.46
2018-12-23T20:37:53.525Z,84.49
2018-12-23T20:40:40.093Z,83.62
2018-12-23T20:43:29.686Z,83.62
2018-12-23T20:46:25.524Z,84.58
2018-12-23T20:49:14.119Z,84.58
2018-12-23T20:51:54.834Z,83.87
2018-12-23T20:54:54.595Z,84.26
2018-12-23T20:57:34.350Z,83.94
2018-12-23T21:00:30.481Z,84.56
2018-12-23T21:03:33.883Z,84.66
2018-12-23T21:06:29.360Z,84.83
2018-12-23T21:09:34.230Z,84.70
2018-12-23T21:12:28.328Z,85.04
2018-12-23T21:15:15.121Z,85.32
2018-12-23T21:18:17.247Z,85.32
2018-12-23T21:21:16.043Z,85.02
2018-12-23T21:23:56.566Z,85.24
2018-12-23T21:26:49.369Z,85.26
2018-12-23T21:29:38.928Z,85.26
2018-12-23T21:32:16.310Z,85.50
2018-12-23T21:35:05.647Z,85.20
2018-12-23T21:37:37.329Z,85.21
2018-12-23T21:40:29.675Z,85.04
2018-12-23T21:43:03.991Z,84.78
2018-12-23T21:45:47.012Z,84.61
2018-12-23T21:48:24.217Z,84.29
2018-12-23T21:51:30.481Z,84.29
2018-12-23T21:54:16.944Z,84.41
2018-12-23T21:57:22.163Z,84.41
2018-12-23T22:00:02.523Z,84.90
2018-12-23T22:02:52.240Z,85.20
2018-12-23T22:05:29.979Z,84.87
2018-12-23T22:08:22.686Z,85.11
2018-12-23T22:11:15.873Z,85.11
2018-12-23T22:13:44.445Z,84.89
2018-12-23T22:16:13.024Z,85.45
2018-12-23T22:18:41.636Z,85.01
2018-12-23T22:21:10.198Z,84.81
2018-12-23T22:23:38.738Z,85.14
2018-12-23T22:26:07.284Z,85.08
2018-12-23T22:28:35.869Z,85.32
2018-12-23T22:31:04.697Z,85.45
2018-12-23T22:33:34.948Z,86.18
2018-12-23T22:36:03.695Z,86.19
2018-12-23T22:38:32.259Z,86.04
2018-12-23T22:41:00.885Z,86.32
2018-12-23T22:43:29.519Z,86.21
2018-12-23T22:45:58.081Z,86.62
2018-12-23T22:48:43.897Z,86.39
2018-12-23T22:51:12.453Z,86.18
2018-12-23T22:53:41.089Z,86.15
2018-12-23T22:56:09.703Z,86.45
2018-12-23T22:58:38.328Z,86.89
2018-12-23T23:01:07.252Z,86.24
2018-12-23T23:03:35.833Z,86.35
2018-12-23T23:06:07.468Z,86.05
2018-12-23T23:08:36.032Z,85.95
2018-12-23T23:11:06.286Z,85.65
2018-12-23T23:13:34.933Z,85.83
2018-12-23T23:16:03.655Z,86.42
2018-12-23T23:18:38.159Z,85.99
2018-12-23T23:21:06.860Z,86.18
2018-12-23T23:23:35.480Z,86.24
2018-12-23T23:26:06.298Z,86.17
2018-12-23T23:28:35.024Z,86.20
2018-12-23T23:31:03.846Z,86.05
2018-12-23T23:33:32.454Z,86.48
2018-12-23T23:36:00.983Z,86.44
2018-12-23T23:38:29.595Z,86.47
2018-12-23T23:40:58.152Z,86.14
2018-12-23T23:43:26.772Z,86.14
2018-12-23T23:45:55.293Z,85.84
2018-12-23T23:48:25.587Z,86.35
2018-12-23T23:50:54.149Z,86.05
2018-12-23T23:53:22.677Z,85.77
2018-12-23T23:55:51.260Z,85.56
2018-12-23T23:58:19.819Z,85.67
